Time;durP1;ratioP1;P1;durP2;ratioP2;P2;SDS_P1;SDS_P2;PMS_P1;PMS_P2;Temp;Humidity;BMP_temperature;BMP_pressure;BME280_temperature;BME280_humidity;BME280_pressure;Samples;Min_cycle;Max_cycle;Signal;HPM_P1;HPM_P2
2022/05/13 00:01:42;;;;;;;;;;;11.30;50.00;;;;;;5007112;28;19929;-70
2022/05/13 00:04:10;;;;;;;;;;;11.30;50.50;;;;;;5008827;28;20020;-70
2022/05/13 00:06:37;;;;;;;;;;;11.20;51.00;;;;;;5005738;28;19929;-70
2022/05/13 00:09:04;;;;;;;;;;;11.20;51.80;;;;;;5006035;28;20012;-68
2022/05/13 00:11:31;;;;;;;;;;;11.20;52.80;;;;;;5006294;28;20410;-70
2022/05/13 00:13:58;;;;;;;;;;;11.10;54.00;;;;;;5008893;28;19926;-68
2022/05/13 00:16:26;;;;;;;;;;;11.10;55.40;;;;;;5007107;28;20343;-70
2022/05/13 00:18:52;;;;;;;;;;;11.00;57.20;;;;;;5004190;28;20039;-68
2022/05/13 00:21:21;;;;;;;;;;;11.00;59.10;;;;;;5004412;28;20399;-68
2022/05/13 00:23:47;;;;;;;;;;;11.00;61.10;;;;;;5008771;28;20013;-68
2022/05/13 00:26:14;;;;;;;;;;;11.00;63.40;;;;;;5007049;28;20338;-68
2022/05/13 00:28:41;;;;;;;;;;;10.90;65.30;;;;;;5000758;28;20355;-68
2022/05/13 00:31:07;;;;;;;;;;;10.90;67.10;;;;;;5006511;28;19933;-69
2022/05/13 00:33:34;;;;;;;;;;;10.90;69.00;;;;;;5008019;28;19929;-72
2022/05/13 00:36:01;;;;;;;;;;;10.80;70.70;;;;;;5007985;28;19926;-69
2022/05/13 00:38:29;;;;;;;;;;;10.80;72.60;;;;;;5001919;28;19925;-68
2022/05/13 00:40:55;;;;;;;;;;;10.70;74.50;;;;;;5006358;28;19926;-69
2022/05/13 00:43:39;;;;;;;;;;;10.70;76.30;;;;;;5007064;28;19926;-68
2022/05/13 00:46:05;;;;;;;;;;;10.70;77.90;;;;;;5002318;28;19932;-68
2022/05/13 00:48:32;;;;;;;;;;;10.70;79.40;;;;;;5004387;28;20373;-68
2022/05/13 00:50:59;;;;;;;;;;;10.70;80.70;;;;;;5005423;28;19929;-68
2022/05/13 00:53:27;;;;;;;;;;;10.60;82.00;;;;;;5005838;28;19925;-68
2022/05/13 00:55:55;;;;;;;;;;;10.60;83.30;;;;;;5003042;28;19933;-68
2022/05/13 00:58:22;;;;;;;;;;;10.60;84.30;;;;;;5006455;28;19925;-68
2022/05/13 01:00:49;;;;;;;;;;;10.50;85.00;;;;;;5004245;28;20021;-69
2022/05/13 01:03:16;;;;;;;;;;;10.50;86.00;;;;;;5006598;28;19926;-68
2022/05/13 01:05:43;;;;;;;;;;;10.50;86.90;;;;;;5004284;28;20017;-68
2022/05/13 01:08:11;;;;;;;;;;;10.50;87.90;;;;;;5006360;28;20028;-69
2022/05/13 01:10:39;;;;;;;;;;;10.50;89.20;;;;;;5005828;28;19925;-68
2022/05/13 01:13:11;;;;;;;;;;;10.40;90.00;;;;;;5004881;28;20292;-68
2022/05/13 01:15:38;;;;;;;;;;;10.40;90.50;;;;;;5003693;28;19926;-68
2022/05/13 01:18:07;;;;;;;;;;;10.40;91.10;;;;;;5000970;28;20287;-68
2022/05/13 01:20:36;;;;;;;;;;;10.40;91.50;;;;;;5006222;28;19929;-69
2022/05/13 01:23:04;;;;;;;;;;;10.40;92.00;;;;;;5005119;28;20538;-68
2022/05/13 01:25:33;;;;;;;;;;;10.30;92.40;;;;;;5003594;28;20288;-68
2022/05/13 01:28:06;;;;;;;;;;;10.30;92.90;;;;;;5006689;28;19933;-69
2022/05/13 01:30:32;;;;;;;;;;;10.30;93.40;;;;;;5005708;28;19943;-68
2022/05/13 01:32:59;;;;;;;;;;;10.30;93.90;;;;;;5003613;28;19951;-69
2022/05/13 01:35:26;;;;;;;;;;;10.30;94.20;;;;;;5003762;28;20391;-69
2022/05/13 01:37:53;;;;;;;;;;;10.30;94.60;;;;;;5004520;28;19926;-69
2022/05/13 01:40:21;;;;;;;;;;;10.30;95.00;;;;;;5005935;28;20423;-69
2022/05/13 01:42:47;;;;;;;;;;;10.30;95.40;;;;;;5006140;28;19932;-70
2022/05/13 01:45:15;;;;;;;;;;;10.30;95.90;;;;;;5004258;28;19929;-69
2022/05/13 01:47:41;;;;;;;;;;;10.30;96.30;;;;;;5006610;28;19932;-69
2022/05/13 01:50:08;;;;;;;;;;;10.30;96.60;;;;;;5005275;28;19926;-69
2022/05/13 01:52:35;;;;;;;;;;;10.30;97.00;;;;;;5002480;28;19932;-68
2022/05/13 01:55:02;;;;;;;;;;;10.30;97.30;;;;;;5005073;28;19930;-68
2022/05/13 01:57:31;;;;;;;;;;;10.30;97.60;;;;;;5006287;28;19925;-68
2022/05/13 01:59:57;;;;;;;;;;;10.30;97.90;;;;;;5004178;28;20012;-70
2022/05/13 02:02:24;;;;;;;;;;;10.40;98.20;;;;;;5004686;28;19932;-68
2022/05/13 02:04:51;;;;;;;;;;;10.30;98.50;;;;;;5004639;28;19933;-69
2022/05/13 02:07:17;;;;;;;;;;;10.30;98.70;;;;;;5004999;28;20450;-69
2022/05/13 02:09:44;;;;;;;;;;;10.30;99.00;;;;;;5004870;28;19980;-69
2022/05/13 02:12:11;;;;;;;;;;;10.30;99.20;;;;;;4997934;28;20372;-68
2022/05/13 02:14:39;;;;;;;;;;;10.30;99.40;;;;;;5007674;28;19929;-69
2022/05/13 02:17:06;;;;;;;;;;;10.30;99.60;;;;;;5007054;28;19933;-69
2022/05/13 02:19:33;;;;;;;;;;;10.30;99.90;;;;;;5006642;28;20494;-69
2022/05/13 02:21:59;;;;;;;;;;;10.30;99.90;;;;;;5000173;28;19969;-68
2022/05/13 02:24:26;;;;;;;;;;;10.20;99.90;;;;;;5011089;28;19972;-68
2022/05/13 02:26:52;;;;;;;;;;;10.20;99.90;;;;;;5009619;28;19962;-69
2022/05/13 02:29:19;;;;;;;;;;;10.10;99.90;;;;;;5010807;28;19925;-68
2022/05/13 02:31:48;;;;;;;;;;;10.00;99.90;;;;;;5003568;28;20369;-69
2022/05/13 02:34:15;;;;;;;;;;;10.00;99.90;;;;;;5004497;28;20419;-68
2022/05/13 02:36:42;;;;;;;;;;;9.90;99.90;;;;;;5008940;28;19932;-70
2022/05/13 02:39:08;;;;;;;;;;;9.90;99.90;;;;;;5010770;28;20020;-69
2022/05/13 02:41:36;;;;;;;;;;;9.90;99.90;;;;;;5008302;28;19929;-70
2022/05/13 02:44:02;;;;;;;;;;;9.80;99.90;;;;;;5009840;28;19926;-69
2022/05/13 02:46:32;;;;;;;;;;;9.80;99.90;;;;;;5009257;28;19932;-70
2022/05/13 02:49:00;;;;;;;;;;;9.80;99.90;;;;;;5009990;28;19964;-69
2022/05/13 02:51:27;;;;;;;;;;;9.70;99.90;;;;;;5003797;28;19991;-68
2022/05/13 02:53:54;;;;;;;;;;;9.70;99.90;;;;;;5005724;28;19979;-70
2022/05/13 02:56:21;;;;;;;;;;;9.70;99.90;;;;;;5007851;28;19973;-70
2022/05/13 02:58:47;;;;;;;;;;;9.70;99.90;;;;;;5011077;28;19952;-69
2022/05/13 03:01:15;;;;;;;;;;;9.70;99.90;;;;;;5005237;28;20454;-69
2022/05/13 03:03:43;;;;;;;;;;;9.70;99.90;;;;;;5008642;28;20020;-69
2022/05/13 03:06:11;;;;;;;;;;;9.70;99.90;;;;;;5003065;28;19930;-68
2022/05/13 03:08:38;;;;;;;;;;;9.70;99.90;;;;;;5008104;28;19947;-68
2022/05/13 03:11:05;;;;;;;;;;;9.70;99.90;;;;;;5006098;28;20296;-68
2022/05/13 03:13:32;;;;;;;;;;;9.70;99.90;;;;;;5009731;28;20372;-68
2022/05/13 03:16:02;;;;;;;;;;;9.80;99.90;;;;;;5008154;28;19929;-69
2022/05/13 03:18:28;;;;;;;;;;;9.80;99.90;;;;;;5004989;28;20008;-68
2022/05/13 03:20:55;;;;;;;;;;;9.90;99.90;;;;;;5004486;28;19932;-72
2022/05/13 03:23:23;;;;;;;;;;;9.90;99.90;;;;;;5007859;28;19986;-69
2022/05/13 03:25:50;;;;;;;;;;;9.90;99.90;;;;;;5007069;28;19932;-69
2022/05/13 03:28:16;;;;;;;;;;;10.00;99.90;;;;;;5007001;28;19925;-70
2022/05/13 03:30:43;;;;;;;;;;;9.90;99.90;;;;;;5006083;28;19986;-69
2022/05/13 03:33:10;;;;;;;;;;;10.00;99.90;;;;;;5009901;28;20311;-68
2022/05/13 03:35:36;;;;;;;;;;;10.00;99.90;;;;;;5008388;28;20003;-69
2022/05/13 03:38:03;;;;;;;;;;;10.10;99.90;;;;;;5010452;28;19926;-69
2022/05/13 03:40:31;;;;;;;;;;;10.10;99.90;;;;;;5005362;28;20012;-72
2022/05/13 03:42:58;;;;;;;;;;;10.20;99.90;;;;;;5009544;28;20004;-70
2022/05/13 03:45:26;;;;;;;;;;;10.20;99.90;;;;;;5007030;28;19940;-68
2022/05/13 03:47:53;;;;;;;;;;;10.20;99.90;;;;;;4996282;28;19926;-69
2022/05/13 03:50:19;;;;;;;;;;;10.20;99.90;;;;;;5006650;28;20115;-69
2022/05/13 03:52:46;;;;;;;;;;;10.20;99.90;;;;;;5004859;28;20376;-69
2022/05/13 03:55:13;;;;;;;;;;;10.20;99.90;;;;;;5005481;28;19926;-69
2022/05/13 03:57:41;;;;;;;;;;;10.20;99.90;;;;;;5009487;28;19925;-69
2022/05/13 04:00:10;;;;;;;;;;;10.20;99.90;;;;;;5006907;28;20021;-69
2022/05/13 04:02:37;;;;;;;;;;;10.20;99.90;;;;;;5006537;28;19925;-69
2022/05/13 04:10:38;;;;;;;;;;;10.20;99.90;;;;;;4948271;28;20009;-69
2022/05/13 04:16:06;;;;;;;;;;;10.20;99.90;;;;;;5004226;28;19948;-69
2022/05/13 04:18:33;;;;;;;;;;;10.30;99.90;;;;;;5007138;28;19987;-69
2022/05/13 04:21:00;;;;;;;;;;;10.30;99.90;;;;;;5007103;28;19960;-69
2022/05/13 04:23:27;;;;;;;;;;;10.30;99.90;;;;;;5008923;28;19970;-69
2022/05/13 04:25:53;;;;;;;;;;;10.30;99.90;;;;;;5005354;28;20008;-69
2022/05/13 04:28:21;;;;;;;;;;;10.30;99.90;;;;;;5006535;28;19929;-69
2022/05/13 04:30:48;;;;;;;;;;;10.30;99.90;;;;;;4997848;28;19948;-69
2022/05/13 04:33:15;;;;;;;;;;;10.30;99.90;;;;;;5006899;28;20834;-69
2022/05/13 04:35:44;;;;;;;;;;;10.20;99.90;;;;;;5004640;28;19930;-69
2022/05/13 04:38:11;;;;;;;;;;;10.20;99.90;;;;;;5006707;28;19940;-68
2022/05/13 04:40:38;;;;;;;;;;;10.30;99.90;;;;;;5001787;28;19973;-68
2022/05/13 04:43:03;;;;;;;;;;;10.30;99.90;;;;;;5000889;28;19925;-68
2022/05/13 04:45:31;;;;;;;;;;;10.30;99.90;;;;;;5004925;28;19932;-69
2022/05/13 04:48:17;;;;;;;;;;;10.20;99.90;;;;;;5005194;28;20016;-69
2022/05/13 04:50:46;;;;;;;;;;;10.20;99.90;;;;;;5003837;28;20350;-68
2022/05/13 04:53:14;;;;;;;;;;;10.20;99.90;;;;;;4999904;28;19948;-68
2022/05/13 04:55:40;;;;;;;;;;;10.20;99.90;;;;;;5001870;28;20020;-68
2022/05/13 04:58:07;;;;;;;;;;;10.20;99.90;;;;;;5003890;28;19926;-68
2022/05/13 05:00:35;;;;;;;;;;;10.20;99.90;;;;;;5004822;28;20017;-70
2022/05/13 05:03:02;;;;;;;;;;;10.20;99.90;;;;;;5002121;28;19926;-69
2022/05/13 05:05:29;;;;;;;;;;;10.30;99.90;;;;;;5001771;28;19933;-69
2022/05/13 05:07:56;;;;;;;;;;;10.30;99.90;;;;;;5000996;28;20584;-68
2022/05/13 05:10:22;;;;;;;;;;;10.40;99.90;;;;;;4997067;28;19965;-69
2022/05/13 05:12:53;;;;;;;;;;;10.40;99.90;;;;;;5004824;28;19936;-68
2022/05/13 05:15:23;;;;;;;;;;;10.50;99.90;;;;;;5001417;28;19944;-69
2022/05/13 05:17:51;;;;;;;;;;;10.50;99.90;;;;;;5001949;28;19926;-68
2022/05/13 05:20:17;;;;;;;;;;;10.60;99.90;;;;;;5001114;28;19926;-69
2022/05/13 05:22:45;;;;;;;;;;;10.60;99.90;;;;;;5006194;28;19932;-69
2022/05/13 05:25:13;;;;;;;;;;;10.60;99.90;;;;;;5002263;28;20295;-70
2022/05/13 05:27:41;;;;;;;;;;;10.70;99.90;;;;;;4998431;28;19978;-69
2022/05/13 05:30:09;;;;;;;;;;;10.70;99.90;;;;;;5002264;28;20020;-69
2022/05/13 05:32:37;;;;;;;;;;;10.70;99.90;;;;;;4999907;28;19937;-69
2022/05/13 05:35:05;;;;;;;;;;;10.80;99.90;;;;;;4999179;28;19925;-70
2022/05/13 05:37:33;;;;;;;;;;;10.90;99.90;;;;;;4997933;28;20682;-70
2022/05/13 05:39:59;;;;;;;;;;;10.90;99.90;;;;;;4999705;28;19933;-69
2022/05/13 05:42:26;;;;;;;;;;;11.00;99.90;;;;;;5003187;28;19930;-69
2022/05/13 05:44:53;;;;;;;;;;;11.00;99.90;;;;;;5003611;28;19966;-70
2022/05/13 05:47:21;;;;;;;;;;;11.10;99.90;;;;;;5003414;28;19925;-70
2022/05/13 05:49:48;;;;;;;;;;;11.10;99.90;;;;;;5005953;28;20404;-70
2022/05/13 05:52:16;;;;;;;;;;;11.20;99.90;;;;;;5007693;28;19926;-70
2022/05/13 05:57:27;;;;;;;;;;;11.50;99.90;;;;;;5004302;28;19936;-69
2022/05/13 05:59:54;;;;;;;;;;;11.70;99.90;;;;;;5003139;28;19932;-71
2022/05/13 06:02:21;;;;;;;;;;;12.00;99.90;;;;;;5004122;28;20674;-67
2022/05/13 06:04:47;;;;;;;;;;;12.20;99.90;;;;;;5004128;28;20352;-68
2022/05/13 06:07:16;;;;;;;;;;;12.40;99.90;;;;;;5002783;28;19933;-69
2022/05/13 06:09:43;;;;;;;;;;;12.40;99.90;;;;;;5000679;28;20004;-70
2022/05/13 06:12:11;;;;;;;;;;;12.50;99.90;;;;;;5002755;28;19926;-69
2022/05/13 06:14:38;;;;;;;;;;;12.50;99.90;;;;;;4998918;28;19965;-69
2022/05/13 06:17:05;;;;;;;;;;;12.70;99.90;;;;;;5006429;28;20015;-69
2022/05/13 06:19:32;;;;;;;;;;;12.70;99.90;;;;;;5008256;28;19926;-69
2022/05/13 06:21:58;;;;;;;;;;;12.60;99.90;;;;;;5006909;28;19933;-70
2022/05/13 06:24:26;;;;;;;;;;;12.50;99.90;;;;;;4998779;28;19934;-69
2022/05/13 06:26:53;;;;;;;;;;;12.50;99.90;;;;;;5003014;28;20021;-69
2022/05/13 06:29:21;;;;;;;;;;;12.70;99.90;;;;;;5005112;28;20552;-71
2022/05/13 06:31:48;;;;;;;;;;;12.80;99.90;;;;;;4998076;28;20549;-69
2022/05/13 06:34:14;;;;;;;;;;;12.90;99.90;;;;;;4999704;28;19955;-69
2022/05/13 06:36:41;;;;;;;;;;;13.00;99.90;;;;;;4991874;28;19930;-69
2022/05/13 06:39:08;;;;;;;;;;;13.10;99.90;;;;;;5000747;28;19941;-69
2022/05/13 06:41:37;;;;;;;;;;;13.20;99.90;;;;;;5002982;28;19926;-69
2022/05/13 06:44:04;;;;;;;;;;;13.30;99.90;;;;;;5003291;28;20012;-69
2022/05/13 06:46:31;;;;;;;;;;;13.40;99.90;;;;;;5001986;28;19937;-69
2022/05/13 06:48:58;;;;;;;;;;;13.60;99.90;;;;;;5001223;28;19932;-68
2022/05/13 06:51:24;;;;;;;;;;;14.20;99.90;;;;;;5005137;28;19925;-68
2022/05/13 06:53:51;;;;;;;;;;;15.20;98.70;;;;;;4994364;28;19926;-69
2022/05/13 06:56:18;;;;;;;;;;;15.80;97.50;;;;;;5007628;28;19926;-66
2022/05/13 06:58:46;;;;;;;;;;;16.70;94.80;;;;;;5003125;28;20319;-67
2022/05/13 07:01:13;;;;;;;;;;;17.20;90.80;;;;;;5000867;28;20315;-69
2022/05/13 07:03:39;;;;;;;;;;;16.90;90.40;;;;;;5001536;28;19933;-67
2022/05/13 07:06:06;;;;;;;;;;;16.90;90.80;;;;;;5006572;28;20407;-68
2022/05/13 07:08:33;;;;;;;;;;;17.60;86.20;;;;;;5004003;28;19969;-67
2022/05/13 07:10:59;;;;;;;;;;;17.80;84.10;;;;;;5000129;28;20020;-68
2022/05/13 07:13:26;;;;;;;;;;;18.50;80.50;;;;;;5003204;28;20228;-68
2022/05/13 07:15:54;;;;;;;;;;;18.80;75.00;;;;;;4999785;28;20408;-67
2022/05/13 07:18:21;;;;;;;;;;;18.70;71.60;;;;;;4996231;28;19937;-68
2022/05/13 07:20:48;;;;;;;;;;;18.10;71.90;;;;;;5001831;28;20477;-68
2022/05/13 07:23:15;;;;;;;;;;;17.60;74.20;;;;;;5003575;28;19978;-69
2022/05/13 07:25:42;;;;;;;;;;;17.90;74.10;;;;;;5003887;28;19926;-68
2022/05/13 07:28:09;;;;;;;;;;;18.70;71.00;;;;;;4999712;28;19926;-67
2022/05/13 07:30:36;;;;;;;;;;;18.10;68.60;;;;;;5000220;28;19930;-68
2022/05/13 07:33:04;;;;;;;;;;;18.20;69.20;;;;;;4999707;28;19926;-68
2022/05/13 07:35:31;;;;;;;;;;;18.20;67.70;;;;;;4995518;28;20349;-68
2022/05/13 07:37:57;;;;;;;;;;;18.10;68.40;;;;;;5003756;28;19929;-69
2022/05/13 07:43:08;;;;;;;;;;;19.80;61.60;;;;;;5001325;28;19933;-68
2022/05/13 07:45:35;;;;;;;;;;;19.80;59.90;;;;;;4996692;28;20284;-67
2022/05/13 07:48:04;;;;;;;;;;;20.70;55.90;;;;;;5004040;28;20380;-68
2022/05/13 07:50:31;;;;;;;;;;;21.20;53.90;;;;;;4996840;28;19992;-68
2022/05/13 07:52:57;;;;;;;;;;;21.10;50.70;;;;;;5006034;28;19930;-67
2022/05/13 07:55:24;;;;;;;;;;;21.00;50.50;;;;;;5001104;28;19926;-66
2022/05/13 07:57:51;;;;;;;;;;;21.40;49.20;;;;;;5003623;28;20057;-67
2022/05/13 08:00:29;;;;;;;;;;;22.40;47.30;;;;;;4999252;28;19930;-68
2022/05/13 08:02:57;;;;;;;;;;;23.60;42.60;;;;;;5001526;28;19929;-67
2022/05/13 08:05:26;;;;;;;;;;;22.80;38.60;;;;;;4999926;28;19926;-67
2022/05/13 08:08:04;;;;;;;;;;;21.40;40.10;;;;;;5005695;28;19939;-67
2022/05/13 08:10:31;;;;;;;;;;;20.70;42.20;;;;;;5003905;28;20336;-68
2022/05/13 08:12:58;;;;;;;;;;;21.00;42.50;;;;;;5002112;28;20431;-68
2022/05/13 08:15:25;;;;;;;;;;;20.80;41.20;;;;;;5001027;28;19930;-68
2022/05/13 08:17:51;;;;;;;;;;;21.60;40.50;;;;;;5003078;28;19972;-68
2022/05/13 08:20:18;;;;;;;;;;;22.80;37.30;;;;;;5003742;28;19926;-67
2022/05/13 08:22:46;;;;;;;;;;;22.20;35.90;;;;;;5008022;28;19926;-68
2022/05/13 08:25:13;;;;;;;;;;;22.10;36.50;;;;;;5003713;28;20419;-68
2022/05/13 08:27:40;;;;;;;;;;;22.60;34.90;;;;;;5005859;28;20376;-68
2022/05/13 08:30:09;;;;;;;;;;;23.60;32.80;;;;;;5004860;28;19925;-67
2022/05/13 08:32:35;;;;;;;;;;;22.80;30.40;;;;;;5004827;28;19960;-68
2022/05/13 08:35:02;;;;;;;;;;;22.30;30.50;;;;;;5001467;28;19932;-67
2022/05/13 08:37:29;;;;;;;;;;;21.80;32.10;;;;;;5003158;28;19926;-67
2022/05/13 08:40:00;;;;;;;;;;;22.40;31.40;;;;;;5002239;28;19934;-67
2022/05/13 08:42:35;;;;;;;;;;;22.70;29.70;;;;;;5001855;28;19933;-68
2022/05/13 08:45:03;;;;;;;;;;;22.30;29.90;;;;;;5004666;28;20358;-67
2022/05/13 08:47:32;;;;;;;;;;;22.60;30.90;;;;;;5005183;28;19977;-67
2022/05/13 08:50:03;;;;;;;;;;;22.50;28.80;;;;;;5003745;28;20016;-68
2022/05/13 08:55:23;;;;;;;;;;;22.40;28.30;;;;;;5000488;28;19936;-67
2022/05/13 08:57:51;;;;;;;;;;;22.50;29.60;;;;;;5005973;28;20327;-68
2022/05/13 09:00:20;;;;;;;;;;;22.80;27.10;;;;;;5003555;28;19932;-68
2022/05/13 09:02:48;;;;;;;;;;;22.70;26.80;;;;;;5004554;28;19932;-67
2022/05/13 09:05:21;;;;;;;;;;;22.50;26.50;;;;;;5003014;28;19926;-67
2022/05/13 09:07:50;;;;;;;;;;;22.40;27.00;;;;;;5005678;28;19936;-67
2022/05/13 09:10:17;;;;;;;;;;;20.90;27.00;;;;;;5002878;28;20422;-67
2022/05/13 09:12:48;;;;;;;;;;;20.00;29.30;;;;;;5000880;28;20375;-67
2022/05/13 09:15:18;;;;;;;;;;;19.30;31.00;;;;;;5001556;28;20398;-68
2022/05/13 09:17:50;;;;;;;;;;;18.90;32.30;;;;;;5006948;28;19926;-66
2022/05/13 09:20:18;;;;;;;;;;;18.50;31.60;;;;;;5000066;28;19933;-68
2022/05/13 09:22:49;;;;;;;;;;;18.20;33.10;;;;;;5004670;28;19932;-66
2022/05/13 09:25:18;;;;;;;;;;;19.40;31.40;;;;;;5002973;28;19925;-66
2022/05/13 09:27:47;;;;;;;;;;;20.00;30.70;;;;;;5006022;28;19929;-66
2022/05/13 09:30:17;;;;;;;;;;;21.30;29.00;;;;;;5001626;28;19933;-66
2022/05/13 09:32:44;;;;;;;;;;;19.70;29.60;;;;;;5001836;28;20339;-69
2022/05/13 09:35:15;;;;;;;;;;;18.70;32.80;;;;;;5003253;28;19935;-66
2022/05/13 09:37:43;;;;;;;;;;;18.80;33.50;;;;;;5000646;28;19986;-66
2022/05/13 09:40:11;;;;;;;;;;;19.00;33.50;;;;;;5012823;28;20311;-66
2022/05/13 09:42:38;;;;;;;;;;;19.50;30.70;;;;;;5007904;28;20304;-66
2022/05/13 09:45:17;;;;;;;;;;;19.30;31.70;;;;;;5002171;28;19932;-66
2022/05/13 09:47:45;;;;;;;;;;;19.00;32.20;;;;;;5005476;28;19932;-67
2022/05/13 09:50:18;;;;;;;;;;;19.10;32.90;;;;;;5002502;28;19925;-68
2022/05/13 09:52:45;;;;;;;;;;;19.60;32.50;;;;;;5004326;28;20020;-67
2022/05/13 09:55:15;;;;;;;;;;;20.10;31.00;;;;;;5009301;28;20019;-67
2022/05/13 09:57:42;;;;;;;;;;;20.20;30.00;;;;;;5009274;28;20079;-67
2022/05/13 10:00:15;;;;;;;;;;;19.40;31.40;;;;;;5002329;28;19937;-67
2022/05/13 10:02:43;;;;;;;;;;;18.60;33.10;;;;;;5004684;28;19925;-67
2022/05/13 10:05:15;;;;;;;;;;;18.60;32.30;;;;;;4998318;28;20016;-68
2022/05/13 10:07:54;;;;;;;;;;;18.80;32.60;;;;;;5001450;28;20305;-67
2022/05/13 10:15:53;;;;;;;;;;;19.40;31.90;;;;;;5003299;28;20300;-68
2022/05/13 10:18:25;;;;;;;;;;;19.20;31.30;;;;;;5004830;28;19976;-67
2022/05/13 10:20:53;;;;;;;;;;;18.70;32.70;;;;;;5002478;28;19932;-68
2022/05/13 10:23:24;;;;;;;;;;;18.50;33.90;;;;;;5002787;28;19937;-68
2022/05/13 10:25:54;;;;;;;;;;;18.60;34.00;;;;;;5005139;28;20431;-68
2022/05/13 10:28:22;;;;;;;;;;;18.60;33.30;;;;;;5003405;28;20384;-68
2022/05/13 10:30:51;;;;;;;;;;;18.50;33.80;;;;;;5002878;28;19936;-67
2022/05/13 10:33:23;;;;;;;;;;;18.50;34.70;;;;;;5003745;28;20026;-68
2022/05/13 10:35:53;;;;;;;;;;;18.30;34.60;;;;;;5000947;28;19925;-69
2022/05/13 10:38:24;;;;;;;;;;;18.00;35.40;;;;;;5005946;28;19934;-69
2022/05/13 10:40:51;;;;;;;;;;;18.00;35.60;;;;;;4997024;28;19947;-67
2022/05/13 10:43:21;;;;;;;;;;;18.40;34.70;;;;;;5008009;28;20410;-67
2022/05/13 10:45:49;;;;;;;;;;;18.80;34.80;;;;;;5005380;28;20265;-67
2022/05/13 10:48:19;;;;;;;;;;;18.50;34.50;;;;;;5003652;28;19926;-69
2022/05/13 10:51:02;;;;;;;;;;;18.50;34.00;;;;;;5007283;28;20012;-68
2022/05/13 10:53:35;;;;;;;;;;;18.80;34.30;;;;;;5004002;28;20373;-67
2022/05/13 10:56:04;;;;;;;;;;;18.90;33.80;;;;;;5006952;28;19985;-67
2022/05/13 10:58:35;;;;;;;;;;;19.10;34.50;;;;;;5004571;28;20024;-67
2022/05/13 11:01:06;;;;;;;;;;;18.80;34.10;;;;;;5003568;28;19925;-68
2022/05/13 11:03:36;;;;;;;;;;;18.40;34.50;;;;;;5004701;28;19933;-66
2022/05/13 11:06:07;;;;;;;;;;;18.40;34.60;;;;;;5006957;28;20376;-67
2022/05/13 11:08:41;;;;;;;;;;;18.80;33.50;;;;;;5000737;28;20468;-66
2022/05/13 11:11:19;;;;;;;;;;;19.00;32.90;;;;;;5007232;28;20277;-67
2022/05/13 11:13:52;;;;;;;;;;;19.10;33.40;;;;;;5006045;28;20581;-68
2022/05/13 11:16:23;;;;;;;;;;;19.60;33.30;;;;;;5008892;28;20450;-67
2022/05/13 11:18:53;;;;;;;;;;;19.40;32.70;;;;;;5004490;28;19940;-67
2022/05/13 11:21:26;;;;;;;;;;;18.80;31.90;;;;;;5007940;28;20033;-67
2022/05/13 11:26:46;;;;;;;;;;;19.00;32.20;;;;;;5006347;28;19932;-67
2022/05/13 11:29:17;;;;;;;;;;;18.90;32.80;;;;;;5004397;28;19936;-67
2022/05/13 11:31:56;;;;;;;;;;;19.10;33.50;;;;;;5006150;28;19932;-68
2022/05/13 11:34:29;;;;;;;;;;;19.50;32.00;;;;;;5004307;28;19925;-68
2022/05/13 11:36:58;;;;;;;;;;;19.20;31.40;;;;;;5006668;28;20299;-68
2022/05/13 11:39:35;;;;;;;;;;;19.00;32.10;;;;;;5000106;28;20049;-67
2022/05/13 11:42:09;;;;;;;;;;;19.10;32.50;;;;;;5007365;28;20032;-68
2022/05/13 11:44:41;;;;;;;;;;;19.30;31.40;;;;;;5005117;28;19926;-69
2022/05/13 11:47:10;;;;;;;;;;;19.10;31.70;;;;;;5005565;28;19926;-69
2022/05/13 11:49:40;;;;;;;;;;;19.20;32.20;;;;;;5003519;28;19925;-68
2022/05/13 11:52:22;;;;;;;;;;;19.20;32.30;;;;;;5005092;28;19925;-68
2022/05/13 11:55:10;;;;;;;;;;;19.40;32.00;;;;;;5002109;28;19929;-68
2022/05/13 11:57:41;;;;;;;;;;;19.70;32.10;;;;;;5001042;28;19926;-68
2022/05/13 12:00:27;;;;;;;;;;;19.60;31.70;;;;;;5004244;28;20025;-68
2022/05/13 12:02:55;;;;;;;;;;;19.60;32.50;;;;;;5004146;28;19925;-67
2022/05/13 12:05:38;;;;;;;;;;;19.90;31.00;;;;;;5004982;28;19926;-68
2022/05/13 12:08:19;;;;;;;;;;;19.90;30.10;;;;;;5003724;28;19932;-68
2022/05/13 12:10:52;;;;;;;;;;;20.20;30.70;;;;;;5003342;28;19935;-68
2022/05/13 12:13:26;;;;;;;;;;;19.70;30.10;;;;;;5003335;28;19934;-68
2022/05/13 12:16:04;;;;;;;;;;;19.60;31.50;;;;;;5006845;28;19925;-67
2022/05/13 12:18:32;;;;;;;;;;;19.50;31.10;;;;;;5004200;28;19926;-68
2022/05/13 12:21:07;;;;;;;;;;;19.60;31.30;;;;;;5006265;28;19952;-68
2022/05/13 12:23:38;;;;;;;;;;;20.00;31.10;;;;;;5003400;28;19932;-67
2022/05/13 12:26:07;;;;;;;;;;;20.30;30.30;;;;;;5002111;28;20369;-68
2022/05/13 12:28:41;;;;;;;;;;;20.30;30.00;;;;;;5004635;28;19932;-68
2022/05/13 12:31:17;;;;;;;;;;;20.10;29.70;;;;;;5003564;28;19951;-68
2022/05/13 12:33:48;;;;;;;;;;;19.80;30.50;;;;;;5005522;28;19932;-68
2022/05/13 12:39:13;;;;;;;;;;;19.70;30.60;;;;;;5003697;28;19944;-68
2022/05/13 12:41:53;;;;;;;;;;;19.80;30.00;;;;;;5006822;28;19936;-68
2022/05/13 12:44:25;;;;;;;;;;;19.80;30.10;;;;;;5001722;28;22070;-68
2022/05/13 12:46:52;;;;;;;;;;;19.90;30.50;;;;;;5004665;28;20348;-67
2022/05/13 12:49:20;;;;;;;;;;;20.10;30.70;;;;;;5003373;28;20016;-66
2022/05/13 12:51:52;;;;;;;;;;;20.40;30.60;;;;;;5006396;28;19969;-67
2022/05/13 12:54:21;;;;;;;;;;;20.40;30.30;;;;;;4995544;28;20388;-67
2022/05/13 12:56:51;;;;;;;;;;;20.40;29.80;;;;;;5021173;28;19932;-67
2022/05/13 12:59:20;;;;;;;;;;;19.90;30.90;;;;;;5004016;28;20016;-67
2022/05/13 13:01:52;;;;;;;;;;;20.10;30.40;;;;;;5004637;28;20395;-69
2022/05/13 13:04:22;;;;;;;;;;;20.20;29.50;;;;;;5004304;28;19954;-69
2022/05/13 13:06:49;;;;;;;;;;;20.00;30.30;;;;;;5004389;28;19926;-67
2022/05/13 13:09:19;;;;;;;;;;;20.00;29.70;;;;;;5004733;28;19925;-67
2022/05/13 13:11:50;;;;;;;;;;;19.90;30.00;;;;;;5005003;28;19925;-66
2022/05/13 13:14:19;;;;;;;;;;;19.80;30.20;;;;;;5002693;28;19933;-67
2022/05/13 13:16:49;;;;;;;;;;;19.90;30.10;;;;;;5000539;28;19932;-67
2022/05/13 13:19:19;;;;;;;;;;;20.30;30.40;;;;;;5001754;28;19932;-66
2022/05/13 13:21:46;;;;;;;;;;;20.60;29.70;;;;;;5002646;28;19932;-66
2022/05/13 13:24:16;;;;;;;;;;;20.30;29.30;;;;;;5003130;28;19947;-67
2022/05/13 13:26:43;;;;;;;;;;;20.10;29.30;;;;;;5005644;28;19972;-66
2022/05/13 13:29:11;;;;;;;;;;;20.30;29.80;;;;;;5005474;28;20017;-65
2022/05/13 13:31:41;;;;;;;;;;;20.50;29.10;;;;;;5003483;28;19926;-66
2022/05/13 13:34:21;;;;;;;;;;;20.80;28.70;;;;;;5005172;28;20331;-66
2022/05/13 13:36:49;;;;;;;;;;;20.90;29.10;;;;;;5003094;28;20016;-66
2022/05/13 13:39:15;;;;;;;;;;;21.00;28.20;;;;;;5005185;28;20413;-66
2022/05/13 13:41:43;;;;;;;;;;;21.00;27.90;;;;;;5003168;28;20399;-66
2022/05/13 13:44:14;;;;;;;;;;;20.80;28.30;;;;;;5002417;28;19929;-63
2022/05/13 13:46:43;;;;;;;;;;;20.50;28.30;;;;;;5005116;28;20008;-67
2022/05/13 13:49:10;;;;;;;;;;;20.60;29.00;;;;;;5002325;28;19964;-67
2022/05/13 13:51:51;;;;;;;;;;;20.60;28.60;;;;;;5004926;28;20025;-66
2022/05/13 13:54:19;;;;;;;;;;;20.70;28.70;;;;;;4997790;28;20576;-66
2022/05/13 13:56:49;;;;;;;;;;;20.40;28.40;;;;;;5004920;28;19925;-67
2022/05/13 13:59:21;;;;;;;;;;;20.40;28.70;;;;;;5002155;28;20392;-66
2022/05/13 14:01:49;;;;;;;;;;;20.30;28.30;;;;;;5004851;28;19991;-67
2022/05/13 14:04:19;;;;;;;;;;;20.60;29.10;;;;;;5000641;28;19925;-68
2022/05/13 14:06:46;;;;;;;;;;;20.80;29.20;;;;;;5006419;28;20351;-66
2022/05/13 14:09:15;;;;;;;;;;;20.70;28.60;;;;;;5003120;28;19947;-66
2022/05/13 14:11:42;;;;;;;;;;;20.70;28.90;;;;;;5061061;28;19926;-67
2022/05/13 14:14:09;;;;;;;;;;;20.60;29.10;;;;;;5017124;28;19933;-67
2022/05/13 14:16:44;;;;;;;;;;;20.70;28.50;;;;;;5005537;28;20333;-67
2022/05/13 14:19:12;;;;;;;;;;;20.60;28.70;;;;;;5007018;28;20018;-67
2022/05/13 14:21:42;;;;;;;;;;;20.70;28.90;;;;;;5001326;28;20300;-67
2022/05/13 14:24:10;;;;;;;;;;;20.70;28.00;;;;;;5000336;28;19925;-66
2022/05/13 14:26:48;;;;;;;;;;;20.70;28.10;;;;;;5006233;28;20179;-66
2022/05/13 14:29:16;;;;;;;;;;;20.80;28.00;;;;;;5004197;28;20411;-66
2022/05/13 14:31:44;;;;;;;;;;;20.80;28.80;;;;;;4995386;28;19934;-66
2022/05/13 14:34:13;;;;;;;;;;;21.10;28.60;;;;;;5003679;28;20096;-66
2022/05/13 14:36:41;;;;;;;;;;;21.10;27.60;;;;;;5001287;28;20444;-66
2022/05/13 14:41:54;;;;;;;;;;;21.40;27.20;;;;;;5004055;28;20328;-68
2022/05/13 14:44:23;;;;;;;;;;;21.30;26.40;;;;;;4998278;28;19934;-65
2022/05/13 14:46:58;;;;;;;;;;;21.20;27.30;;;;;;5004731;28;20348;-66
2022/05/13 14:49:33;;;;;;;;;;;21.20;27.40;;;;;;5001235;28;19978;-66
2022/05/13 14:52:00;;;;;;;;;;;20.80;27.40;;;;;;5003441;28;20020;-66
2022/05/13 14:54:27;;;;;;;;;;;21.00;28.30;;;;;;5002441;28;20392;-65
2022/05/13 14:56:55;;;;;;;;;;;20.90;27.70;;;;;;4999868;28;19932;-66
2022/05/13 14:59:29;;;;;;;;;;;20.90;28.20;;;;;;5003888;28;19933;-66